Time;durP1;ratioP1;P1;durP2;ratioP2;P2;SDS_P1;SDS_P2;PMS_P1;PMS_P2;Temp;Humidity;BMP_temperature;BMP_pressure;BME280_temperature;BME280_humidity;BME280_pressure;Samples;Min_cycle;Max_cycle;Signal;HPM_P1;HPM_P2
2024/03/14 00:00:49;;;;;;;15.05;10.65;;;10.80;93.00;;;;;;5074849;28;20124;-78
2024/03/14 00:03:14;;;;;;;16.30;9.98;;;10.90;93.00;;;;;;5057562;28;20036;-77
2024/03/14 00:05:40;;;;;;;15.55;11.60;;;10.90;92.90;;;;;;5058087;28;20093;-77
2024/03/14 00:08:06;;;;;;;15.68;10.60;;;10.80;93.00;;;;;;5073314;28;20086;-77
2024/03/14 00:10:31;;;;;;;13.60;10.68;;;10.90;93.00;;;;;;5071612;28;20033;-77
2024/03/14 00:12:57;;;;;;;20.92;14.82;;;10.80;93.10;;;;;;5074311;28;20028;-77
2024/03/14 00:15:23;;;;;;;15.15;11.20;;;10.80;93.00;;;;;;5070690;28;20059;-77
2024/03/14 00:17:49;;;;;;;13.98;10.93;;;10.80;92.90;;;;;;5071656;28;20024;-77
2024/03/14 00:20:15;;;;;;;15.68;12.13;;;10.90;92.90;;;;;;5070935;28;20040;-77
2024/03/14 00:22:41;;;;;;;14.85;10.93;;;10.90;92.90;;;;;;5074101;28;20055;-78
2024/03/14 00:25:09;;;;;;;15.43;11.25;;;10.80;92.90;;;;;;5072283;28;20071;-77
2024/03/14 00:27:37;;;;;;;16.25;11.80;;;10.80;93.00;;;;;;5071584;28;20041;-77
2024/03/14 00:30:05;;;;;;;14.35;10.80;;;10.80;93.00;;;;;;5073327;28;20078;-78
2024/03/14 00:32:33;;;;;;;18.05;12.95;;;10.80;93.00;;;;;;5073594;28;20039;-78
2024/03/14 00:34:59;;;;;;;16.65;11.88;;;10.70;93.10;;;;;;5071887;28;20043;-78
2024/03/14 00:37:24;;;;;;;14.95;11.95;;;10.70;93.10;;;;;;5076163;28;20278;-79
2024/03/14 00:39:50;;;;;;;14.23;11.52;;;10.60;93.20;;;;;;5053885;28;20043;-78
2024/03/14 00:42:16;;;;;;;13.50;10.30;;;10.60;93.30;;;;;;5047371;28;20138;-79
2024/03/14 00:44:42;;;;;;;14.52;11.52;;;10.60;93.30;;;;;;5072739;28;20147;-79
2024/03/14 00:47:07;;;;;;;15.60;11.52;;;10.60;93.40;;;;;;5075389;28;20059;-79
2024/03/14 00:49:33;;;;;;;16.55;12.07;;;10.60;93.50;;;;;;5074574;28;20051;-78
2024/03/14 00:51:59;;;;;;;16.98;12.00;;;10.60;93.70;;;;;;5068981;28;20032;-79
2024/03/14 00:54:25;;;;;;;16.27;12.48;;;10.60;93.70;;;;;;5069918;28;20024;-78
2024/03/14 00:56:52;;;;;;;15.55;12.27;;;10.60;93.70;;;;;;5074966;28;20055;-79
2024/03/14 00:59:18;;;;;;;16.15;12.68;;;10.60;93.70;;;;;;5069666;28;20376;-78
2024/03/14 01:01:46;;;;;;;18.63;13.70;;;10.50;93.80;;;;;;5071715;28;20035;-78
2024/03/14 01:04:13;;;;;;;16.52;13.68;;;10.60;93.70;;;;;;5068621;28;20028;-78
2024/03/14 01:06:39;;;;;;;16.60;13.05;;;10.50;93.70;;;;;;5070212;28;20040;-78
2024/03/14 01:09:06;;;;;;;17.20;13.30;;;10.50;93.80;;;;;;5073732;28;20031;-78
2024/03/14 01:11:32;;;;;;;17.45;13.88;;;10.50;93.80;;;;;;5073957;28;20051;-78
2024/03/14 01:13:57;;;;;;;16.50;13.73;;;10.50;93.80;;;;;;5068411;28;20116;-79
2024/03/14 01:16:23;;;;;;;17.15;14.20;;;10.50;93.90;;;;;;5070886;28;20036;-78
2024/03/14 01:18:50;;;;;;;17.60;13.32;;;10.50;94.10;;;;;;5073561;28;20064;-78
2024/03/14 01:21:16;;;;;;;18.40;14.70;;;10.40;94.10;;;;;;5048457;28;20508;-78
2024/03/14 01:23:42;;;;;;;17.05;14.00;;;10.40;94.10;;;;;;5049496;28;20032;-78
2024/03/14 01:26:09;;;;;;;18.30;14.48;;;10.40;94.20;;;;;;5069571;28;20035;-78
2024/03/14 01:28:35;;;;;;;18.45;15.25;;;10.40;94.20;;;;;;5069260;28;20070;-78
2024/03/14 01:31:01;;;;;;;18.30;14.45;;;10.40;94.10;;;;;;5074383;28;20062;-78
2024/03/14 01:33:27;;;;;;;19.60;15.23;;;10.40;94.10;;;;;;5074611;28;20461;-78
2024/03/14 01:35:58;;;;;;;17.25;14.57;;;10.40;94.20;;;;;;5043713;28;20029;-78
2024/03/14 01:38:24;;;;;;;20.50;15.88;;;10.30;94.20;;;;;;5062443;28;20476;-78
2024/03/14 01:40:49;;;;;;;19.08;15.70;;;10.30;94.30;;;;;;5066997;28;20035;-78
2024/03/14 01:43:15;;;;;;;18.38;15.48;;;10.30;94.30;;;;;;5056303;28;20059;-78
2024/03/14 01:45:46;;;;;;;17.83;14.88;;;10.30;94.40;;;;;;5072665;28;20146;-78
2024/03/14 01:48:12;;;;;;;20.13;16.58;;;10.20;94.40;;;;;;5065717;28;20051;-78
2024/03/14 01:50:39;;;;;;;20.85;17.27;;;10.20;94.50;;;;;;5077384;28;20028;-78
2024/03/14 01:53:04;;;;;;;22.45;17.48;;;10.20;94.60;;;;;;5073636;28;20100;-78
2024/03/14 01:55:30;;;;;;;22.38;16.70;;;10.20;94.70;;;;;;5052923;28;20137;-78
2024/03/14 01:57:58;;;;;;;22.13;18.05;;;10.20;94.70;;;;;;5076152;28;20024;-78
2024/03/14 02:00:29;;;;;;;22.02;19.52;;;10.20;94.80;;;;;;5076528;28;20036;-79
2024/03/14 02:02:56;;;;;;;22.70;18.08;;;10.20;94.70;;;;;;5073767;28;20092;-79
2024/03/14 02:05:36;;;;;;;24.25;19.70;;;10.20;94.80;;;;;;5058028;28;20166;-79
2024/03/14 02:08:04;;;;;;;24.98;19.67;;;10.20;94.80;;;;;;5075439;28;20024;-78
2024/03/14 02:10:29;;;;;;;23.48;19.48;;;10.10;94.90;;;;;;5075582;28;20028;-80
2024/03/14 02:12:55;;;;;;;26.48;19.13;;;10.10;94.90;;;;;;5076987;28;20047;-79
2024/03/14 02:15:23;;;;;;;27.23;19.70;;;10.10;95.00;;;;;;5072597;28;20102;-79
2024/03/14 02:17:50;;;;;;;24.17;19.13;;;10.10;95.10;;;;;;5075316;28;20031;-79
2024/03/14 02:20:16;;;;;;;25.90;20.40;;;10.10;95.10;;;;;;5073824;28;20115;-79
2024/03/14 02:22:41;;;;;;;23.58;19.73;;;10.10;95.00;;;;;;5076838;28;20030;-79
2024/03/14 02:25:07;;;;;;;23.38;20.10;;;10.00;95.10;;;;;;5051860;28;20478;-79
2024/03/14 02:27:34;;;;;;;24.05;19.55;;;10.00;95.20;;;;;;5070396;28;20059;-79
2024/03/14 02:30:00;;;;;;;26.17;21.45;;;10.00;95.30;;;;;;5055194;28;20079;-79
2024/03/14 02:32:26;;;;;;;26.48;21.70;;;10.00;95.40;;;;;;5059997;28;20020;-79
2024/03/14 02:34:52;;;;;;;24.95;20.90;;;10.00;95.30;;;;;;5064945;28;20447;-79
2024/03/14 02:37:17;;;;;;;24.90;20.63;;;9.90;95.30;;;;;;5074644;28;20040;-78
2024/03/14 02:39:44;;;;;;;25.67;21.45;;;9.90;95.40;;;;;;5076430;28;20123;-78
2024/03/14 02:42:11;;;;;;;25.95;20.92;;;9.80;95.40;;;;;;5074149;28;20068;-79
2024/03/14 02:44:37;;;;;;;25.77;21.50;;;9.90;95.50;;;;;;5072783;28;20127;-79
2024/03/14 02:47:02;;;;;;;29.23;23.17;;;9.80;95.50;;;;;;5075011;28;20135;-79
2024/03/14 02:49:28;;;;;;;26.40;22.27;;;9.80;95.50;;;;;;5071156;28;20068;-77
2024/03/14 02:51:54;;;;;;;26.48;21.52;;;9.80;95.60;;;;;;5055225;28;20120;-77
2024/03/14 02:54:19;;;;;;;28.02;22.15;;;9.80;95.70;;;;;;5074490;28;20024;-77
2024/03/14 02:56:47;;;;;;;26.60;21.92;;;9.70;95.70;;;;;;5056117;28;20562;-77
2024/03/14 02:59:14;;;;;;;26.80;21.92;;;9.60;95.70;;;;;;5054715;28;20055;-77
2024/03/14 03:01:40;;;;;;;28.10;22.38;;;9.60;95.80;;;;;;5073133;28;20217;-77
2024/03/14 03:04:06;;;;;;;28.33;22.42;;;9.60;95.80;;;;;;5060325;28;20032;-79
2024/03/14 03:06:33;;;;;;;28.63;23.00;;;9.60;95.80;;;;;;5073936;28;20036;-77
2024/03/14 03:08:59;;;;;;;26.02;20.55;;;9.60;95.90;;;;;;5074215;28;20016;-80
2024/03/14 03:11:26;;;;;;;27.23;21.48;;;9.60;96.00;;;;;;5069863;28;20488;-79
2024/03/14 03:13:51;;;;;;;29.67;22.20;;;9.50;96.00;;;;;;5073449;28;20028;-76
2024/03/14 03:16:17;;;;;;;30.80;21.73;;;9.50;96.00;;;;;;5074288;28;20040;-79
2024/03/14 03:18:42;;;;;;;27.00;22.02;;;9.50;96.10;;;;;;5075015;28;20080;-79
2024/03/14 03:21:08;;;;;;;26.80;21.30;;;9.50;96.10;;;;;;5069665;28;20198;-78
2024/03/14 03:23:34;;;;;;;26.35;21.80;;;9.40;96.00;;;;;;5055624;28;20431;-78
2024/03/14 03:25:59;;;;;;;26.70;22.25;;;9.40;96.10;;;;;;5068240;28;20085;-78
2024/03/14 03:28:26;;;;;;;27.90;22.45;;;9.40;96.10;;;;;;5072170;28;20028;-79
2024/03/14 03:30:53;;;;;;;26.75;21.48;;;9.40;96.10;;;;;;5072506;28;20024;-79
2024/03/14 03:33:20;;;;;;;24.75;20.70;;;9.40;96.10;;;;;;5074023;28;20119;-79
2024/03/14 03:35:46;;;;;;;27.70;21.40;;;9.30;96.10;;;;;;5078039;28;20028;-79
2024/03/14 03:38:14;;;;;;;26.55;22.48;;;9.30;96.20;;;;;;5056680;28;20029;-79
2024/03/14 03:40:40;;;;;;;25.98;21.10;;;9.30;96.20;;;;;;5070160;28;20044;-80
2024/03/14 03:43:09;;;;;;;26.52;20.92;;;9.30;96.30;;;;;;5073865;28;20072;-79
2024/03/14 03:45:35;;;;;;;29.52;20.88;;;9.30;96.40;;;;;;5071672;28;20515;-78
2024/03/14 03:48:01;;;;;;;24.65;20.77;;;9.20;96.40;;;;;;5072540;28;24470;-79
2024/03/14 03:50:27;;;;;;;27.90;22.05;;;9.20;96.40;;;;;;5068101;28;20097;-79
2024/03/14 03:52:54;;;;;;;24.55;20.42;;;9.20;96.40;;;;;;5054944;28;20066;-78
2024/03/14 03:55:21;;;;;;;26.48;20.73;;;9.30;96.40;;;;;;5065362;28;20059;-79
2024/03/14 03:57:47;;;;;;;25.20;20.10;;;9.20;96.30;;;;;;5054356;28;20038;-78
2024/03/14 04:02:57;;;;;;;25.55;20.48;;;9.20;96.40;;;;;;5068062;28;20174;-77
2024/03/14 04:05:26;;;;;;;28.67;21.27;;;9.20;96.40;;;;;;5074021;28;20115;-79
2024/03/14 04:07:53;;;;;;;26.77;20.75;;;9.10;96.40;;;;;;5075633;28;20480;-78
2024/03/14 04:10:23;;;;;;;26.98;21.00;;;9.10;96.40;;;;;;5051230;28;20409;-78
2024/03/14 04:12:53;;;;;;;28.15;21.13;;;9.10;96.40;;;;;;5057433;28;20423;-78
2024/03/14 04:15:19;;;;;;;28.10;20.83;;;9.10;96.50;;;;;;5071099;28;20127;-78
2024/03/14 04:17:45;;;;;;;27.52;20.42;;;9.10;96.60;;;;;;5050937;28;20106;-79
2024/03/14 04:20:11;;;;;;;28.30;21.20;;;9.10;96.60;;;;;;5070875;28;20469;-78
2024/03/14 04:22:40;;;;;;;27.55;20.58;;;9.10;96.60;;;;;;5072437;28;20047;-78
2024/03/14 04:25:11;;;;;;;30.27;21.13;;;9.00;96.70;;;;;;5065303;28;20312;-78
2024/03/14 04:27:38;;;;;;;29.15;22.58;;;9.00;96.80;;;;;;5067027;28;20045;-78
2024/03/14 04:30:06;;;;;;;30.60;22.48;;;9.00;96.90;;;;;;5072227;28;20047;-78
2024/03/14 04:32:32;;;;;;;29.48;21.10;;;9.00;97.00;;;;;;5069327;28;20020;-78
2024/03/14 04:34:58;;;;;;;28.38;21.17;;;9.00;97.00;;;;;;5049406;28;20118;-79
2024/03/14 04:37:25;;;;;;;27.52;20.38;;;9.00;97.00;;;;;;5075295;28;20020;-78
2024/03/14 04:39:51;;;;;;;26.58;19.90;;;9.00;97.10;;;;;;5055675;28;20384;-78
2024/03/14 04:42:17;;;;;;;27.50;21.35;;;9.00;97.00;;;;;;5074131;28;20020;-77
2024/03/14 04:44:43;;;;;;;29.73;21.35;;;8.90;97.00;;;;;;5072536;28;20102;-79
2024/03/14 04:47:10;;;;;;;27.33;20.05;;;8.90;97.00;;;;;;5072653;28;20037;-76
2024/03/14 04:49:36;;;;;;;27.65;19.60;;;8.90;97.00;;;;;;5070899;28;20558;-78
2024/03/14 04:52:04;;;;;;;27.08;19.35;;;8.80;97.00;;;;;;5055041;28;20097;-79
2024/03/14 04:54:32;;;;;;;26.83;19.83;;;8.80;97.10;;;;;;5052372;28;20060;-78
2024/03/14 04:57:01;;;;;;;25.67;19.23;;;8.80;97.10;;;;;;5068355;28;20056;-78
2024/03/14 04:59:27;;;;;;;24.98;18.15;;;8.80;97.10;;;;;;5054506;28;20114;-79
2024/03/14 05:01:53;;;;;;;25.77;18.38;;;8.80;97.20;;;;;;5077587;28;20026;-78
2024/03/14 05:04:19;;;;;;;26.15;18.70;;;8.80;97.30;;;;;;5069300;28;20065;-76
2024/03/14 05:06:46;;;;;;;24.00;18.27;;;8.80;97.20;;;;;;5067146;28;20109;-79
2024/03/14 05:09:11;;;;;;;23.30;17.55;;;8.80;97.20;;;;;;5056081;28;20025;-77
2024/03/14 05:11:37;;;;;;;21.92;17.27;;;8.80;97.20;;;;;;5049400;28;20343;-79
2024/03/14 05:14:04;;;;;;;22.42;17.50;;;8.80;97.20;;;;;;5060952;28;20398;-78
2024/03/14 05:16:30;;;;;;;23.90;17.67;;;8.80;97.20;;;;;;5071858;28;20043;-78
2024/03/14 05:18:56;;;;;;;25.38;18.13;;;8.80;97.20;;;;;;5082558;28;20185;-78
2024/03/14 05:21:21;;;;;;;23.67;18.52;;;8.80;97.20;;;;;;5074756;28;20044;-78
2024/03/14 05:23:47;;;;;;;25.20;18.13;;;8.70;97.20;;;;;;5072328;28;20050;-78
2024/03/14 05:26:13;;;;;;;24.05;17.30;;;8.70;97.20;;;;;;5057286;28;20404;-79
2024/03/14 05:28:38;;;;;;;22.70;17.42;;;8.70;97.20;;;;;;5080311;28;20089;-78
2024/03/14 05:31:05;;;;;;;22.27;17.17;;;8.70;97.30;;;;;;5075715;28;20115;-78
2024/03/14 05:33:30;;;;;;;21.05;15.70;;;8.70;97.20;;;;;;5076242;28;20028;-78
2024/03/14 05:35:56;;;;;;;23.42;15.88;;;8.70;97.20;;;;;;5074686;28;20048;-78
2024/03/14 05:38:22;;;;;;;21.88;15.95;;;8.70;97.20;;;;;;5078911;28;20054;-78
2024/03/14 05:40:47;;;;;;;18.88;14.38;;;8.70;97.20;;;;;;5078257;28;20388;-78
2024/03/14 05:43:13;;;;;;;21.38;14.43;;;8.70;97.20;;;;;;5074394;28;20048;-78
2024/03/14 05:45:38;;;;;;;18.63;14.65;;;8.70;97.30;;;;;;5075713;28;20035;-78
2024/03/14 05:48:15;;;;;;;19.27;14.27;;;8.70;97.20;;;;;;5073846;28;20460;-78
2024/03/14 05:50:42;;;;;;;21.52;14.55;;;8.70;97.20;;;;;;5077024;28;20028;-78
2024/03/14 05:53:07;;;;;;;22.52;15.20;;;8.70;97.30;;;;;;5073614;28;20024;-77
2024/03/14 05:55:33;;;;;;;20.23;14.07;;;8.70;97.40;;;;;;5080992;28;20382;-78
2024/03/14 05:57:59;;;;;;;21.60;15.13;;;8.70;97.30;;;;;;5083486;28;20016;-77
2024/03/14 06:00:24;;;;;;;22.08;14.50;;;8.70;97.30;;;;;;5077164;28;20045;-79
2024/03/14 06:02:51;;;;;;;20.45;14.88;;;8.70;97.30;;;;;;5076405;28;20468;-78
2024/03/14 06:05:17;;;;;;;20.35;14.85;;;8.70;97.40;;;;;;5073612;28;20038;-78
2024/03/14 06:07:43;;;;;;;21.98;14.98;;;8.80;97.40;;;;;;5060668;28;20028;-78
2024/03/14 06:10:12;;;;;;;20.80;15.05;;;8.70;97.30;;;;;;5076705;28;20107;-78
2024/03/14 06:12:38;;;;;;;21.80;15.68;;;8.80;97.30;;;;;;5068565;28;20024;-77
2024/03/14 06:15:08;;;;;;;20.52;14.70;;;8.80;97.40;;;;;;5053311;28;20044;-78
2024/03/14 06:17:34;;;;;;;21.38;13.95;;;8.80;97.40;;;;;;5071128;28;20353;-78
2024/03/14 06:20:00;;;;;;;20.30;13.98;;;8.80;97.30;;;;;;5075695;28;20032;-79
2024/03/14 06:22:26;;;;;;;20.80;13.93;;;8.80;97.30;;;;;;5073626;28;20070;-79
2024/03/14 06:24:51;;;;;;;21.80;13.90;;;8.80;97.20;;;;;;5072230;28;20042;-78
2024/03/14 06:27:17;;;;;;;19.23;13.63;;;8.80;97.20;;;;;;5075639;28;20028;-78
2024/03/14 06:29:43;;;;;;;20.90;14.05;;;8.80;97.30;;;;;;5076932;28;20028;-78
2024/03/14 06:32:09;;;;;;;19.95;14.02;;;8.90;97.20;;;;;;5072788;28;20028;-78
2024/03/14 06:34:36;;;;;;;19.88;13.95;;;8.90;97.20;;;;;;5071054;28;20094;-77
2024/03/14 06:37:02;;;;;;;18.65;13.18;;;9.00;97.20;;;;;;5058004;28;20072;-75
2024/03/14 06:39:28;;;;;;;17.88;12.35;;;9.10;97.30;;;;;;5073045;28;20090;-75
2024/03/14 06:41:54;;;;;;;18.70;12.15;;;9.30;97.30;;;;;;5076920;28;20044;-75
2024/03/14 06:44:21;;;;;;;14.73;11.23;;;9.50;97.10;;;;;;5077339;28;20133;-74
2024/03/14 06:46:48;;;;;;;16.05;10.35;;;9.60;96.60;;;;;;5073351;28;20440;-75
2024/03/14 06:49:14;;;;;;;16.30;9.93;;;10.00;96.00;;;;;;5072454;28;20016;-75
2024/03/14 06:51:41;;;;;;;14.75;10.23;;;10.30;94.70;;;;;;5071676;28;20028;-75
2024/03/14 06:54:07;;;;;;;16.20;9.85;;;10.60;93.80;;;;;;5074880;28;20035;-75
2024/03/14 06:56:37;;;;;;;14.90;9.13;;;10.50;93.10;;;;;;5055911;28;20044;-75
2024/03/14 06:59:05;;;;;;;17.95;9.85;;;10.40;93.10;;;;;;5073426;28;20101;-74
2024/03/14 07:01:31;;;;;;;15.18;9.43;;;10.30;93.30;;;;;;5071617;28;20039;-76
2024/03/14 07:03:58;;;;;;;17.45;10.57;;;10.10;93.50;;;;;;5056877;28;20454;-75
2024/03/14 07:06:26;;;;;;;15.50;10.20;;;10.10;93.70;;;;;;5054072;28;20028;-76
2024/03/14 07:08:56;;;;;;;17.92;9.98;;;10.00;94.00;;;;;;5072158;28;20229;-74
2024/03/14 07:11:26;;;;;;;15.02;9.75;;;10.00;94.30;;;;;;5073511;28;20040;-75
2024/03/14 07:14:00;;;;;;;16.98;10.38;;;10.00;94.50;;;;;;5056665;28;20028;-75
2024/03/14 07:16:26;;;;;;;18.88;9.73;;;9.90;94.50;;;;;;5048151;28;20505;-86
2024/03/14 07:18:54;;;;;;;13.73;8.90;;;10.00;94.50;;;;;;5058502;28;20111;-80
2024/03/14 07:21:22;;;;;;;13.65;9.18;;;10.00;94.40;;;;;;5057636;28;20469;-80
2024/03/14 07:23:48;;;;;;;15.75;10.25;;;10.00;94.40;;;;;;5074008;28;20074;-80
2024/03/14 07:26:20;;;;;;;13.00;9.02;;;9.90;94.40;;;;;;5058549;28;20352;-79
2024/03/14 07:28:46;;;;;;;15.23;9.60;;;9.90;94.50;;;;;;5075135;28;20032;-79
2024/03/14 07:31:14;;;;;;;13.90;9.27;;;10.00;94.60;;;;;;5070930;28;20547;-79
2024/03/14 07:33:43;;;;;;;16.20;9.50;;;10.10;94.50;;;;;;5073710;28;20372;-79
2024/03/14 07:36:15;;;;;;;15.30;9.57;;;10.10;94.50;;;;;;5070795;28;20039;-80
2024/03/14 07:38:50;;;;;;;14.38;9.18;;;10.10;94.40;;;;;;5075546;28;20052;-79
2024/03/14 07:41:20;;;;;;;13.82;8.60;;;10.20;94.30;;;;;;5073314;28;20044;-79
2024/03/14 07:43:46;;;;;;;14.25;9.07;;;10.20;94.20;;;;;;5075380;28;20047;-79
2024/03/14 07:46:12;;;;;;;15.68;8.38;;;10.30;94.00;;;;;;5055642;28;20044;-79
2024/03/14 07:48:38;;;;;;;12.10;8.15;;;10.40;94.00;;;;;;5072129;28;20031;-79
2024/03/14 07:51:07;;;;;;;12.88;8.30;;;10.50;93.60;;;;;;5054695;28;20041;-79
2024/03/14 07:53:33;;;;;;;13.32;8.43;;;10.60;93.40;;;;;;5072632;28;20027;-80
2024/03/14 07:55:59;;;;;;;13.70;8.68;;;10.80;93.20;;;;;;5074774;28;20157;-79
2024/03/14 07:58:25;;;;;;;12.98;7.88;;;10.90;92.90;;;;;;5072653;28;20106;-79
2024/03/14 08:00:52;;;;;;;12.65;7.82;;;11.10;92.30;;;;;;5070883;28;20062;-80
2024/03/14 08:03:19;;;;;;;12.00;7.80;;;11.20;91.60;;;;;;5082008;28;20031;-80
2024/03/14 08:05:50;;;;;;;13.80;7.70;;;11.40;91.20;;;;;;5081538;28;20040;-79
2024/03/14 08:08:17;;;;;;;10.82;7.80;;;11.50;90.60;;;;;;5100085;28;20440;-80
2024/03/14 08:10:46;;;;;;;13.65;7.35;;;11.80;90.40;;;;;;5087263;28;20028;-80
2024/03/14 08:13:17;;;;;;;10.90;6.95;;;12.10;90.00;;;;;;5055761;28;20450;-80
2024/03/14 08:15:52;;;;;;;12.27;7.45;;;12.30;88.50;;;;;;5079247;28;20066;-77
2024/03/14 08:18:21;;;;;;;9.38;5.88;;;12.50;88.00;;;;;;5071043;28;20107;-77
2024/03/14 08:20:47;;;;;;;10.23;6.55;;;12.70;87.40;;;;;;5075676;28;20050;-78
2024/03/14 08:23:16;;;;;;;10.50;6.40;;;12.80;87.20;;;;;;5056379;28;20047;-77
2024/03/14 08:25:42;;;;;;;9.27;6.68;;;12.70;86.80;;;;;;5069589;28;20244;-80
2024/03/14 08:28:08;;;;;;;11.43;7.00;;;12.60;86.60;;;;;;5070662;28;20070;-76
2024/03/14 08:30:38;;;;;;;11.10;6.20;;;12.70;87.10;;;;;;5070021;28;20024;-80
2024/03/14 08:33:04;;;;;;;10.68;5.75;;;13.00;86.40;;;;;;5053399;28;20021;-81
2024/03/14 08:35:32;;;;;;;9.70;6.00;;;13.00;85.80;;;;;;5053858;28;20330;-77
2024/03/14 08:37:57;;;;;;;10.88;6.30;;;12.80;85.90;;;;;;5056863;28;20086;-80
2024/03/14 08:40:23;;;;;;;10.85;6.55;;;12.60;86.30;;;;;;5052756;28;21786;-80
2024/03/14 08:42:49;;;;;;;11.23;6.13;;;12.60;87.20;;;;;;5070661;28;20358;-76
2024/03/14 08:45:15;;;;;;;9.15;5.55;;;12.70;86.80;;;;;;5068791;28;20372;-76
2024/03/14 08:47:42;;;;;;;15.35;6.18;;;13.00;86.30;;;;;;5062406;28;20029;-77
2024/03/14 08:50:11;;;;;;;10.82;5.93;;;13.10;85.90;;;;;;5051808;28;20039;-75
2024/03/14 08:52:39;;;;;;;10.00;6.07;;;13.40;85.80;;;;;;5058048;28;20365;-78
2024/03/14 08:55:23;;;;;;;11.55;5.60;;;13.50;84.50;;;;;;5078139;28;20047;-76
2024/03/14 08:57:50;;;;;;;10.65;5.45;;;13.70;84.50;;;;;;5073135;28;20008;-77
2024/03/14 09:00:17;;;;;;;8.82;5.57;;;13.80;83.70;;;;;;5074333;28;20040;-78
2024/03/14 09:02:44;;;;;;;10.27;5.85;;;13.90;83.70;;;;;;5077732;28;20020;-77
2024/03/14 09:05:14;;;;;;;10.07;5.05;;;13.90;83.10;;;;;;5060009;28;20040;-79
2024/03/14 09:07:43;;;;;;;11.80;5.55;;;14.00;82.80;;;;;;5075203;28;20020;-78
2024/03/14 09:10:16;;;;;;;10.35;5.22;;;14.10;82.90;;;;;;5054444;28;20473;-78
2024/03/14 09:12:43;;;;;;;8.93;5.55;;;14.20;82.60;;;;;;5078632;28;20483;-78
2024/03/14 09:15:09;;;;;;;8.38;4.97;;;14.30;82.10;;;;;;5075668;28;20068;-78
2024/03/14 09:17:35;;;;;;;10.02;4.88;;;14.40;81.90;;;;;;5075979;28;20039;-74
2024/03/14 09:20:05;;;;;;;8.77;5.10;;;14.40;81.50;;;;;;5074460;28;20474;-75
2024/03/14 09:22:31;;;;;;;9.68;5.18;;;14.60;81.50;;;;;;5062273;28;20375;-75
2024/03/14 09:24:57;;;;;;;9.32;4.82;;;14.80;81.00;;;;;;5076563;28;20032;-75
2024/03/14 09:27:23;;;;;;;7.40;4.53;;;14.90;80.40;;;;;;5060087;28;20020;-75
2024/03/14 09:29:54;;;;;;;7.57;4.20;;;14.90;79.90;;;;;;5072225;28;20605;-75
2024/03/14 09:32:20;;;;;;;8.35;4.72;;;15.00;79.50;;;;;;5077199;28;20063;-76
2024/03/14 09:34:46;;;;;;;8.23;4.47;;;15.00;79.80;;;;;;5061926;28;20311;-77
2024/03/14 09:37:12;;;;;;;8.70;4.45;;;15.10;79.50;;;;;;5063053;28;20036;-78
2024/03/14 09:39:38;;;;;;;7.88;4.13;;;15.10;79.30;;;;;;5078996;28;20113;-75
2024/03/14 09:42:04;;;;;;;8.90;3.88;;;15.20;78.80;;;;;;5054994;28;20085;-76
2024/03/14 09:44:29;;;;;;;6.68;3.53;;;15.10;79.10;;;;;;5074798;28;20055;-78
2024/03/14 09:47:13;;;;;;;7.65;3.78;;;15.20;78.90;;;;;;5075487;28;20028;-77
2024/03/14 09:49:38;;;;;;;7.05;3.50;;;15.20;78.90;;;;;;5075378;28;20097;-76
2024/03/14 09:52:05;;;;;;;6.63;3.67;;;15.40;78.50;;;;;;5074373;28;20461;-77
2024/03/14 09:54:32;;;;;;;5.95;3.10;;;15.50;78.20;;;;;;5078230;28;20624;-77
2024/03/14 09:56:58;;;;;;;5.70;3.20;;;15.60;78.00;;;;;;5060476;28;20078;-74
2024/03/14 09:59:24;;;;;;;6.82;3.10;;;15.80;77.50;;;;;;5075194;28;20087;-79
2024/03/14 10:01:49;;;;;;;5.30;2.90;;;16.00;77.70;;;;;;5074912;28;20040;-81
2024/03/14 10:04:15;;;;;;;6.43;2.90;;;16.00;77.50;;;;;;5063716;28;20593;-83
2024/03/14 10:06:41;;;;;;;5.00;2.75;;;16.00;76.90;;;;;;5076856;28;20081;-86
2024/03/14 10:09:11;;;;;;;6.05;3.47;;;16.20;77.00;;;;;;5073147;28;20024;-76
2024/03/14 10:11:40;;;;;;;6.13;3.20;;;16.40;76.00;;;;;;5061322;28;20024;-84
2024/03/14 10:14:21;;;;;;;6.13;3.05;;;16.10;75.50;;;;;;5063465;28;20082;-85
2024/03/14 10:16:50;;;;;;;6.95;3.10;;;16.10;75.90;;;;;;5060495;28;20044;-80
2024/03/14 10:19:16;;;;;;;6.97;3.20;;;16.00;76.50;;;;;;5072911;28;20514;-80
2024/03/14 10:21:43;;;;;;;7.68;3.55;;;15.70;76.60;;;;;;5060122;28;20372;-81
2024/03/14 10:24:16;;;;;;;7.15;2.92;;;15.60;77.00;;;;;;5060888;28;20027;-78
2024/03/14 10:26:44;;;;;;;8.13;3.10;;;15.60;77.30;;;;;;5075593;28;20170;-77
2024/03/14 10:29:13;;;;;;;5.82;3.05;;;15.70;77.40;;;;;;5069983;28;20579;-79
2024/03/14 10:31:42;;;;;;;7.05;2.95;;;15.90;77.00;;;;;;5060210;28;20810;-76
2024/03/14 10:34:08;;;;;;;7.93;2.92;;;16.40;76.20;;;;;;5074323;28;20035;-74
2024/03/14 10:36:41;;;;;;;8.15;2.95;;;16.80;75.50;;;;;;5075883;28;20085;-76
2024/03/14 10:39:14;;;;;;;7.68;2.72;;;17.10;74.70;;;;;;5061474;28;20028;-75
2024/03/14 10:41:43;;;;;;;5.50;2.30;;;17.20;73.50;;;;;;5054268;28;20039;-77
2024/03/14 10:44:14;;;;;;;4.97;2.30;;;17.20;73.10;;;;;;5060688;28;20116;-77
2024/03/14 10:46:50;;;;;;;5.65;2.25;;;17.30;72.20;;;;;;5070837;28;20047;-78
2024/03/14 10:49:22;;;;;;;6.60;2.58;;;17.60;72.50;;;;;;5069719;28;20047;-78
2024/03/14 10:51:51;;;;;;;6.18;2.70;;;17.30;70.80;;;;;;5057565;28;20425;-78
2024/03/14 10:54:21;;;;;;;9.43;2.70;;;17.10;71.50;;;;;;5076376;28;20122;-78
2024/03/14 10:56:49;;;;;;;7.85;2.30;;;17.20;72.30;;;;;;5072561;28;20136;-78
2024/03/14 10:59:20;;;;;;;3.95;1.95;;;17.50;71.10;;;;;;5058164;28;20111;-79
2024/03/14 11:01:55;;;;;;;6.90;2.50;;;17.60;70.30;;;;;;5073709;28;20024;-77
2024/03/14 11:04:22;;;;;;;4.68;2.58;;;17.60;70.90;;;;;;5059208;28;20578;-78
2024/03/14 11:06:54;;;;;;;9.23;2.45;;;17.70;70.70;;;;;;5074474;28;20122;-78
2024/03/14 11:09:25;;;;;;;4.90;2.28;;;17.70;70.80;;;;;;5057552;28;20479;-79
2024/03/14 11:11:57;;;;;;;4.38;2.33;;;17.90;70.80;;;;;;5055926;28;20352;-77
2024/03/14 11:14:33;;;;;;;3.83;2.00;;;17.60;70.80;;;;;;5073042;28;20035;-79
2024/03/14 11:16:59;;;;;;;5.20;2.47;;;17.60;70.80;;;;;;5055092;28;20028;-79
2024/03/14 11:19:26;;;;;;;5.30;2.70;;;17.60;70.10;;;;;;5058298;28;20392;-77
2024/03/14 11:21:53;;;;;;;5.65;2.20;;;17.80;70.70;;;;;;5072997;28;20043;-78
2024/03/14 11:24:21;;;;;;;4.93;2.10;;;17.80;70.40;;;;;;5073264;28;20082;-78
2024/03/14 11:26:50;;;;;;;5.32;2.45;;;17.80;70.30;;;;;;5072060;28;20016;-78
2024/03/14 11:29:19;;;;;;;5.75;2.40;;;17.70;71.10;;;;;;5068050;28;20620;-79
2024/03/14 11:31:48;;;;;;;5.90;2.33;;;18.00;71.40;;;;;;5050216;28;20146;-79
2024/03/14 11:34:15;;;;;;;5.18;2.00;;;18.30;68.70;;;;;;5067438;28;20511;-77
2024/03/14 11:36:41;;;;;;;4.95;1.85;;;18.40;68.50;;;;;;5074385;28;20055;-78
2024/03/14 11:39:26;;;;;;;7.55;2.40;;;18.40;67.60;;;;;;5059599;28;20460;-77
2024/03/14 11:42:16;;;;;;;6.60;2.10;;;18.50;67.50;;;;;;5071722;28;20094;-78
2024/03/14 11:44:48;;;;;;;4.30;1.92;;;18.40;68.30;;;;;;5071316;28;20502;-77
2024/03/14 11:47:35;;;;;;;6.75;2.13;;;18.10;68.70;;;;;;5073753;28;20029;-80
2024/03/14 11:50:04;;;;;;;4.85;2.10;;;18.10;68.70;;;;;;5054879;28;20043;-78
2024/03/14 11:52:29;;;;;;;6.40;1.98;;;17.90;68.80;;;;;;5075167;28;20026;-77
2024/03/14 11:54:59;;;;;;;4.43;1.98;;;18.00;68.80;;;;;;5058185;28;20356;-79
2024/03/14 11:57:28;;;;;;;4.38;1.70;;;17.80;69.40;;;;;;5073441;28;20115;-78
2024/03/14 11:59:56;;;;;;;4.63;1.98;;;17.80;68.70;;;;;;5057156;28;20504;-79
2024/03/14 12:02:23;;;;;;;5.85;2.00;;;17.80;68.80;;;;;;5058201;28;20040;-79
2024/03/14 12:04:49;;;;;;;6.28;2.20;;;17.80;69.60;;;;;;5069841;28;20193;-80
2024/03/14 12:07:14;;;;;;;3.80;1.77;;;18.00;69.70;;;;;;5070449;28;20050;-79
2024/03/14 12:09:41;;;;;;;4.00;1.90;;;18.00;68.10;;;;;;5072212;28;20032;-79
2024/03/14 12:12:07;;;;;;;5.13;1.80;;;18.10;68.60;;;;;;5071570;28;20126;-79
2024/03/14 12:14:33;;;;;;;6.28;2.05;;;18.40;67.60;;;;;;5067848;28;20043;-79
2024/03/14 12:17:00;;;;;;;4.85;1.67;;;18.60;67.10;;;;;;5072609;28;20329;-79
2024/03/14 12:19:25;;;;;;;4.60;1.95;;;18.80;67.20;;;;;;5074607;28;20051;-79
2024/03/14 12:21:54;;;;;;;3.35;1.70;;;18.90;65.90;;;;;;5057725;28;20356;-80
2024/03/14 12:24:25;;;;;;;3.80;1.73;;;19.20;65.60;;;;;;5069974;28;20063;-81
2024/03/14 12:26:57;;;;;;;4.15;1.80;;;19.50;64.70;;;;;;5057363;28;20077;-81
2024/03/14 12:29:24;;;;;;;6.82;2.10;;;19.60;63.90;;;;;;5073199;28;20119;-81
2024/03/14 12:31:50;;;;;;;5.60;1.80;;;19.60;63.60;;;;;;5071007;28;20093;-82
2024/03/14 12:34:16;;;;;;;3.97;1.85;;;19.50;63.70;;;;;;5072203;28;20577;-81
2024/03/14 12:36:44;;;;;;;3.92;1.70;;;19.30;63.80;;;;;;5072708;28;20051;-79
2024/03/14 12:39:11;;;;;;;2.50;1.70;;;19.30;63.20;;;;;;5070832;28;20035;-81
2024/03/14 12:41:38;;;;;;;4.43;1.50;;;19.40;63.40;;;;;;5053412;28;20366;-82